createdAt,value
2022-10-30T00:01:35.496Z,98833.59
2022-10-30T00:04:02.068Z,98829.19
2022-10-30T00:06:28.493Z,98836.72
2022-10-30T00:08:54.924Z,98829.53
2022-10-30T00:11:21.671Z,98830.78
2022-10-30T00:13:48.237Z,98828.53
2022-10-30T00:16:14.737Z,98827.59
2022-10-30T00:18:43.112Z,98824.31
2022-10-30T00:21:12.020Z,98821.06
2022-10-30T00:23:38.547Z,98823.88
2022-10-30T00:26:06.706Z,98818.28
2022-10-30T00:28:33.525Z,98826.03
2022-10-30T00:31:01.930Z,98823.56
2022-10-30T00:33:29.393Z,98814.72
2022-10-30T00:35:57.393Z,98815.03
2022-10-30T00:38:23.957Z,98814.22
2022-10-30T00:40:50.594Z,98813.22
2022-10-30T00:43:35.377Z,98806.25
2022-10-30T00:46:12.189Z,98816.00
2022-10-30T00:48:38.833Z,98807.09
2022-10-30T00:51:08.627Z,98811.75
2022-10-30T00:53:35.433Z,98814.38
2022-10-30T00:56:06.966Z,98816.22
2022-10-30T00:58:38.617Z,98810.53
2022-10-30T01:01:09.712Z,98804.22
2022-10-30T01:03:39.676Z,98811.00
2022-10-30T01:06:09.063Z,98805.31
2022-10-30T01:08:36.861Z,98805.16
2022-10-30T01:11:04.657Z,98808.19
2022-10-30T01:13:33.174Z,98796.09
2022-10-30T01:16:15.419Z,98799.72
2022-10-30T01:19:03.767Z,98798.94
2022-10-30T01:21:53.570Z,98802.03
2022-10-30T01:24:23.006Z,98813.59
2022-10-30T01:27:16.641Z,98799.59
2022-10-30T01:29:55.057Z,98797.97
2022-10-30T01:32:39.516Z,98804.59
2022-10-30T01:35:18.336Z,98806.13
2022-10-30T01:37:57.353Z,98806.72
2022-10-30T01:40:24.205Z,98805.09
2022-10-30T01:42:55.576Z,98808.34
2022-10-30T01:45:58.805Z,98807.66
2022-10-30T01:48:40.916Z,98809.59
2022-10-30T01:51:32.383Z,98803.22
2022-10-30T01:54:17.154Z,98796.47
2022-10-30T01:56:55.882Z,98801.00
2022-10-30T01:59:42.176Z,98805.47
2022-10-30T02:02:09.538Z,98799.94
2022-10-30T02:04:37.158Z,98799.16
2022-10-30T02:07:04.663Z,98798.63
2022-10-30T02:09:37.353Z,98799.28
2022-10-30T02:12:04.399Z,98800.41
2022-10-30T02:14:37.888Z,98801.28
2022-10-30T02:17:08.098Z,98798.41
2022-10-30T02:19:35.252Z,98793.34
2022-10-30T02:22:02.714Z,98796.00
2022-10-30T02:24:31.924Z,98794.66
2022-10-30T02:26:59.747Z,98791.44
2022-10-30T02:29:26.294Z,98791.44
2022-10-30T02:31:52.829Z,98791.63
2022-10-30T02:34:19.891Z,98788.22
2022-10-30T02:36:47.385Z,98790.84
2022-10-30T02:39:13.954Z,98785.91
2022-10-30T02:41:40.462Z,98786.22
2022-10-30T02:44:07.012Z,98781.91
2022-10-30T02:46:34.946Z,98779.63
2022-10-30T02:49:02.790Z,98785.34
2022-10-30T02:51:31.341Z,98783.34
2022-10-30T02:53:59.466Z,98774.75
2022-10-30T02:56:26.412Z,98774.63
2022-10-30T02:58:55.512Z,98771.13
2022-10-30T03:01:22.707Z,98775.00
2022-10-30T03:03:52.949Z,98770.25
2022-10-30T03:06:19.484Z,98771.09
2022-10-30T03:08:46.268Z,98771.31
2022-10-30T03:11:15.646Z,98772.03
2022-10-30T03:13:44.582Z,98773.59
2022-10-30T03:16:12.285Z,98776.88
2022-10-30T03:18:39.467Z,98773.06
2022-10-30T03:21:18.963Z,98774.09
2022-10-30T03:23:45.970Z,98769.03
2022-10-30T03:26:13.204Z,98780.38
2022-10-30T03:28:59.976Z,98774.28
2022-10-30T03:31:26.780Z,98773.22
2022-10-30T03:34:08.696Z,98779.16
2022-10-30T03:36:35.353Z,98780.13
2022-10-30T03:39:02.143Z,98776.88
2022-10-30T03:41:30.949Z,98779.69
2022-10-30T03:43:57.401Z,98780.38
2022-10-30T03:46:24.353Z,98782.03
2022-10-30T03:48:53.376Z,98777.31
2022-10-30T03:51:19.919Z,98780.19
2022-10-30T03:53:47.081Z,98777.34
2022-10-30T03:56:13.605Z,98781.16
2022-10-30T03:58:46.616Z,98784.28
2022-10-30T04:01:17.652Z,98783.09
2022-10-30T04:03:48.008Z,98791.16
2022-10-30T04:06:14.713Z,98782.97
2022-10-30T04:08:41.288Z,98786.59
2022-10-30T04:11:11.217Z,98784.63
2022-10-30T04:13:38.462Z,98790.34
2022-10-30T04:16:05.331Z,98785.47
2022-10-30T04:18:33.471Z,98790.28
2022-10-30T04:21:00.860Z,98786.84
2022-10-30T04:23:27.737Z,98787.56
2022-10-30T04:25:55.490Z,98796.81
2022-10-30T04:28:22.917Z,98788.44
2022-10-30T04:30:49.601Z,98794.88
2022-10-30T04:33:17.644Z,98794.44
2022-10-30T04:35:44.154Z,98794.00
2022-10-30T04:38:19.790Z,98792.09
2022-10-30T04:40:47.676Z,98798.75
2022-10-30T04:43:15.299Z,98797.28
2022-10-30T04:45:43.600Z,98791.56
2022-10-30T04:48:14.570Z,98799.91
2022-10-30T04:50:43.501Z,98793.56
2022-10-30T04:53:17.664Z,98795.31
2022-10-30T04:55:46.996Z,98797.03
2022-10-30T04:58:14.132Z,98792.41
2022-10-30T05:00:43.442Z,98794.97
2022-10-30T05:03:22.374Z,98788.63
2022-10-30T05:05:57.456Z,98788.53
2022-10-30T05:08:24.030Z,98796.13
2022-10-30T05:10:50.669Z,98799.53
2022-10-30T05:13:17.280Z,98797.25
2022-10-30T05:15:43.787Z,98796.78
2022-10-30T05:18:10.691Z,98794.81
2022-10-30T05:20:37.234Z,98800.53
2022-10-30T05:23:03.963Z,98802.44
2022-10-30T05:25:31.271Z,98800.63
2022-10-30T05:28:06.237Z,98798.34
2022-10-30T05:30:39.238Z,98797.25
2022-10-30T05:33:15.861Z,98789.88
2022-10-30T05:35:42.508Z,98788.31
2022-10-30T05:38:14.070Z,98790.13
2022-10-30T05:40:40.746Z,98796.34
2022-10-30T05:43:07.329Z,98802.78
2022-10-30T05:45:34.408Z,98797.06
2022-10-30T05:48:04.872Z,98786.50
2022-10-30T05:50:37.296Z,98793.69
2022-10-30T05:53:25.416Z,98787.50
2022-10-30T05:55:57.972Z,98793.69
2022-10-30T05:58:25.924Z,98787.25
2022-10-30T06:00:55.012Z,98784.47
2022-10-30T06:03:35.482Z,98792.28
2022-10-30T06:06:02.119Z,98790.88
2022-10-30T06:08:28.713Z,98793.03
2022-10-30T06:10:58.358Z,98796.84
2022-10-30T06:13:35.998Z,98791.16
2022-10-30T06:16:12.568Z,98798.91
2022-10-30T06:19:08.132Z,98798.28
2022-10-30T06:21:34.677Z,98799.72
2022-10-30T06:24:15.260Z,98800.72
2022-10-30T06:26:48.365Z,98805.72
2022-10-30T06:29:15.872Z,98807.91
2022-10-30T06:31:42.484Z,98815.63
2022-10-30T06:34:09.008Z,98813.00
2022-10-30T06:36:38.603Z,98816.81
2022-10-30T06:39:05.328Z,98818.16
2022-10-30T06:41:44.165Z,98817.19
2022-10-30T06:44:25.563Z,98814.81
2022-10-30T06:46:54.101Z,98821.91
2022-10-30T06:49:20.840Z,98827.63
2022-10-30T06:51:50.576Z,98823.00
2022-10-30T06:54:17.353Z,98830.25
2022-10-30T06:57:06.702Z,98816.25
2022-10-30T06:59:50.206Z,98823.34
2022-10-30T07:02:26.048Z,98824.59
2022-10-30T07:04:59.465Z,98821.50
2022-10-30T07:07:26.044Z,98821.75
2022-10-30T07:09:52.556Z,98815.75
2022-10-30T07:12:25.516Z,98822.91
2022-10-30T07:15:10.569Z,98827.63
2022-10-30T07:17:55.783Z,98832.06
2022-10-30T07:20:25.268Z,98831.59
2022-10-30T07:22:52.152Z,98819.00
2022-10-30T07:25:18.742Z,98821.28
2022-10-30T07:28:08.204Z,98821.63
2022-10-30T07:30:42.569Z,98820.31
2022-10-30T07:33:18.511Z,98814.53
2022-10-30T07:36:05.773Z,98822.19
2022-10-30T07:38:45.128Z,98821.94
2022-10-30T07:41:31.847Z,98821.59
2022-10-30T07:44:33.492Z,98824.84
2022-10-30T07:47:26.001Z,98824.47
2022-10-30T07:50:01.537Z,98824.16
2022-10-30T07:52:33.070Z,98826.31
2022-10-30T07:55:00.265Z,98828.66
2022-10-30T07:57:45.353Z,98828.88
2022-10-30T08:00:30.269Z,98824.66
2022-10-30T08:03:16.177Z,98830.25
2022-10-30T08:05:45.803Z,98832.22
2022-10-30T08:08:19.648Z,98831.16
2022-10-30T08:10:52.440Z,98833.91
2022-10-30T08:13:19.217Z,98827.59
2022-10-30T08:15:45.774Z,98827.38
2022-10-30T08:18:12.595Z,98826.59
2022-10-30T08:20:41.860Z,98829.28
2022-10-30T08:23:08.796Z,98833.75
2022-10-30T08:25:35.335Z,98826.00
2022-10-30T08:28:04.911Z,98831.34
2022-10-30T08:30:36.422Z,98832.88
2022-10-30T08:33:07.263Z,98813.34
2022-10-30T08:35:53.558Z,98814.88
2022-10-30T08:38:20.356Z,98819.22
2022-10-30T08:40:55.977Z,98806.47
2022-10-30T08:43:25.181Z,98796.81
2022-10-30T08:45:52.244Z,98802.72
2022-10-30T08:48:21.663Z,98800.38
2022-10-30T08:50:48.197Z,98798.75
2022-10-30T08:53:20.506Z,98798.94
2022-10-30T08:55:48.021Z,98801.97
2022-10-30T08:58:25.844Z,98794.16
2022-10-30T09:00:55.979Z,98794.03
2022-10-30T09:03:45.940Z,98797.34
2022-10-30T09:06:35.325Z,98799.69
2022-10-30T09:09:27.974Z,98798.84
2022-10-30T09:11:58.105Z,98796.94
2022-10-30T09:14:25.266Z,98794.22
2022-10-30T09:16:51.797Z,98792.53
2022-10-30T09:19:20.940Z,98795.31
2022-10-30T09:21:49.036Z,98793.53
2022-10-30T09:24:16.140Z,98791.56
2022-10-30T09:26:42.587Z,98784.09
2022-10-30T09:29:16.933Z,98799.66
2022-10-30T09:31:43.387Z,98789.88
2022-10-30T09:34:14.324Z,98791.91
2022-10-30T09:36:46.196Z,98791.97
2022-10-30T09:39:12.938Z,98783.16
2022-10-30T09:42:06.044Z,98785.94
2022-10-30T09:45:15.267Z,98802.66
2022-10-30T09:48:12.467Z,98798.66
2022-10-30T09:51:18.030Z,98794.09
2022-10-30T09:53:53.628Z,98788.88
2022-10-30T09:56:37.141Z,98794.94
2022-10-30T09:59:13.547Z,98791.97
2022-10-30T10:02:15.707Z,98791.06
2022-10-30T10:04:47.758Z,98792.94
2022-10-30T10:07:23.665Z,98790.06
2022-10-30T10:10:01.887Z,98788.38
2022-10-30T10:13:00.169Z,98782.84
2022-10-30T10:15:41.717Z,98789.84
2022-10-30T10:18:17.741Z,98788.50
2022-10-30T10:20:49.012Z,98781.81
2022-10-30T10:23:47.420Z,98773.63
2022-10-30T10:26:28.364Z,98770.44
2022-10-30T10:29:16.769Z,98778.56
2022-10-30T10:32:08.786Z,98765.31
2022-10-30T10:34:41.596Z,98775.09
2022-10-30T10:37:30.791Z,98771.31
2022-10-30T10:40:29.154Z,98767.50
2022-10-30T10:43:14.423Z,98773.16
2022-10-30T10:45:49.138Z,98763.63
2022-10-30T10:48:30.092Z,98765.00
2022-10-30T10:51:47.141Z,98764.22
2022-10-30T10:54:26.177Z,98753.38
2022-10-30T10:56:53.549Z,98751.38
2022-10-30T10:59:45.107Z,98756.22
2022-10-30T11:02:26.735Z,98749.69
2022-10-30T11:04:59.768Z,98760.16
2022-10-30T11:07:39.646Z,98755.59
2022-10-30T11:10:14.437Z,98752.63
2022-10-30T11:12:41.454Z,98751.34
2022-10-30T11:15:30.997Z,98746.97
2022-10-30T11:18:07.530Z,98750.19
2022-10-30T11:20:55.794Z,98753.03
2022-10-30T11:23:38.586Z,98739.84
2022-10-30T11:26:26.367Z,98745.34
2022-10-30T11:29:01.679Z,98742.91
2022-10-30T11:31:34.838Z,98739.75
2022-10-30T11:34:19.985Z,98745.03
2022-10-30T11:36:48.964Z,98743.75
2022-10-30T11:39:19.183Z,98738.50
2022-10-30T11:41:55.731Z,98746.88
2022-10-30T11:44:30.286Z,98734.72
2022-10-30T11:46:57.389Z,98738.59
2022-10-30T11:49:27.581Z,98734.25
2022-10-30T11:51:54.345Z,98728.66
2022-10-30T11:54:22.124Z,98729.81
2022-10-30T11:56:50.561Z,98734.09
2022-10-30T11:59:20.500Z,98729.19
2022-10-30T12:02:03.693Z,98730.25
2022-10-30T12:04:33.840Z,98730.31
2022-10-30T12:07:21.372Z,98735.50
2022-10-30T12:09:48.809Z,98722.53
2022-10-30T12:12:29.340Z,98719.81
2022-10-30T12:14:55.905Z,98723.06
2022-10-30T12:17:22.868Z,98716.38
2022-10-30T12:19:53.222Z,98728.50
2022-10-30T12:22:34.612Z,98723.13
2022-10-30T12:25:04.671Z,98719.31
2022-10-30T12:27:36.866Z,98716.09
2022-10-30T12:30:15.311Z,98718.72
2022-10-30T12:32:45.817Z,98704.94
2022-10-30T12:35:22.223Z,98699.28
2022-10-30T12:37:50.667Z,98707.41
2022-10-30T12:40:19.486Z,98693.63
2022-10-30T12:42:55.259Z,98698.22
2022-10-30T12:45:29.297Z,98687.69
2022-10-30T12:48:01.944Z,98686.88
2022-10-30T12:50:47.297Z,98685.88
2022-10-30T12:53:13.864Z,98694.28
2022-10-30T12:55:46.213Z,98686.44
2022-10-30T12:58:27.998Z,98685.34
2022-10-30T13:01:15.887Z,98672.94
2022-10-30T13:03:57.265Z,98684.56
2022-10-30T13:06:31.390Z,98678.41
2022-10-30T13:09:18.520Z,98676.00
2022-10-30T13:11:44.945Z,98682.47
2022-10-30T13:14:21.802Z,98674.13
2022-10-30T13:16:51.545Z,98673.31
2022-10-30T13:19:18.064Z,98676.81
2022-10-30T13:22:07.044Z,98679.25
2022-10-30T13:24:48.913Z,98687.28
2022-10-30T13:27:28.510Z,98677.88
2022-10-30T13:30:30.703Z,98682.69
2022-10-30T13:33:06.195Z,98687.53
2022-10-30T13:35:51.052Z,98684.31
2022-10-30T13:38:20.490Z,98683.22
2022-10-30T13:40:54.703Z,98689.94
2022-10-30T13:43:42.765Z,98691.28
2022-10-30T13:46:34.061Z,98685.81
2022-10-30T13:49:06.495Z,98680.72
2022-10-30T13:51:44.299Z,98681.09
2022-10-30T13:54:13.560Z,98682.13
2022-10-30T13:56:43.420Z,98686.13
2022-10-30T13:59:31.407Z,98689.06
2022-10-30T14:02:21.383Z,98686.88
2022-10-30T14:05:01.964Z,98687.19
2022-10-30T14:07:37.372Z,98683.69
2022-10-30T14:10:10.195Z,98683.13
2022-10-30T14:12:46.518Z,98678.31
2022-10-30T14:15:31.385Z,98682.38
2022-10-30T14:18:25.665Z,98686.03
2022-10-30T14:20:54.092Z,98682.81
2022-10-30T14:23:32.546Z,98679.91
2022-10-30T14:26:12.927Z,98689.75
2022-10-30T14:28:45.238Z,98686.47
2022-10-30T14:31:17.688Z,98684.81
2022-10-30T14:33:50.232Z,98687.59
2022-10-30T14:36:19.780Z,98687.97
2022-10-30T14:39:21.618Z,98687.41
2022-10-30T14:42:13.819Z,98686.03
2022-10-30T14:45:21.850Z,98687.25
2022-10-30T14:48:14.949Z,98687.44
2022-10-30T14:51:17.124Z,98684.50
2022-10-30T14:54:03.108Z,98688.84
2022-10-30T14:56:50.652Z,98692.09
2022-10-30T14:59:17.403Z,98681.94
2022-10-30T15:01:52.530Z,98681.88
2022-10-30T15:04:31.845Z,98680.63
2022-10-30T15:07:16.935Z,98683.31
2022-10-30T15:10:12.085Z,98689.34
2022-10-30T15:12:59.743Z,98688.31
2022-10-30T15:15:29.590Z,98697.34
2022-10-30T15:17:59.686Z,98696.97
2022-10-30T15:20:31.337Z,98693.47
2022-10-30T15:23:04.688Z,98693.69
2022-10-30T15:25:39.173Z,98693.09
2022-10-30T15:28:06.386Z,98697.69
2022-10-30T15:51:26.869Z,98713.38
2022-10-30T15:59:18.766Z,98717.09
2022-10-30T16:01:46.938Z,98722.69
2022-10-30T16:04:17.871Z,98711.44
2022-10-30T16:06:59.756Z,98717.97
2022-10-30T16:09:28.064Z,98716.03
2022-10-30T16:11:58.397Z,98722.53
2022-10-30T16:14:27.961Z,98721.38
2022-10-30T16:16:55.096Z,98727.69
2022-10-30T16:19:29.117Z,98736.56
2022-10-30T16:21:57.591Z,98739.31
2022-10-30T16:24:31.047Z,98739.75
2022-10-30T16:27:14.109Z,98741.78
2022-10-30T16:29:41.963Z,98734.28
2022-10-30T16:32:17.407Z,98738.97
2022-10-30T16:34:45.525Z,98740.53
2022-10-30T16:37:20.662Z,98746.16
2022-10-30T16:39:50.748Z,98750.06
2022-10-30T16:42:22.977Z,98748.75
2022-10-30T16:44:50.112Z,98751.47
2022-10-30T16:47:16.638Z,98753.72
2022-10-30T16:49:56.445Z,98759.03
2022-10-30T16:52:30.564Z,98751.75
2022-10-30T16:55:04.673Z,98756.53
2022-10-30T16:57:43.152Z,98764.00
2022-10-30T17:00:27.461Z,98760.78
2022-10-30T17:02:57.680Z,98765.06
2022-10-30T17:05:36.915Z,98759.97
2022-10-30T17:08:25.927Z,98765.31
2022-10-30T17:11:05.025Z,98780.97
2022-10-30T17:13:33.104Z,98785.75
2022-10-30T17:16:11.533Z,98781.25
2022-10-30T17:18:38.146Z,98791.91
2022-10-30T17:21:10.203Z,98804.78
2022-10-30T17:23:37.399Z,98805.81
2022-10-30T17:26:11.409Z,98807.84
2022-10-30T17:28:38.940Z,98814.34
2022-10-30T17:31:17.657Z,98821.28
2022-10-30T17:33:45.959Z,98822.31
2022-10-30T17:36:12.494Z,98833.38
2022-10-30T17:38:39.225Z,98835.81
2022-10-30T17:41:07.016Z,98833.34
2022-10-30T17:43:35.738Z,98841.72
2022-10-30T17:46:02.289Z,98840.91
2022-10-30T17:48:29.882Z,98836.22
2022-10-30T17:50:56.702Z,98845.16
2022-10-30T17:53:25.417Z,98848.84
2022-10-30T17:56:32.475Z,98844.16
2022-10-30T17:58:59.264Z,98838.44
2022-10-30T18:01:27.171Z,98847.22
2022-10-30T18:03:55.884Z,98847.63
2022-10-30T18:06:27.842Z,98855.34
2022-10-30T18:08:58.290Z,98858.16
2022-10-30T18:11:27.139Z,98856.94
2022-10-30T18:13:56.314Z,98860.75
2022-10-30T18:16:23.791Z,98856.50
2022-10-30T18:18:50.932Z,98855.53
2022-10-30T18:21:23.404Z,98867.56
2022-10-30T18:23:53.095Z,98864.44
2022-10-30T18:26:25.633Z,98865.28
2022-10-30T18:28:52.430Z,98873.16
2022-10-30T18:31:22.419Z,98875.78
2022-10-30T18:33:49.238Z,98876.28
2022-10-30T18:36:21.214Z,98876.28
2022-10-30T18:38:48.380Z,98886.06
2022-10-30T18:41:26.889Z,98877.78
2022-10-30T18:43:53.480Z,98879.75
2022-10-30T18:46:20.061Z,98882.13
2022-10-30T18:48:46.621Z,98883.16
2022-10-30T18:51:20.650Z,98883.97
2022-10-30T18:53:53.189Z,98888.22
2022-10-30T18:56:21.624Z,98885.16
2022-10-30T18:58:48.852Z,98890.25
2022-10-30T19:01:16.497Z,98891.47
2022-10-30T19:03:43.995Z,98895.78
2022-10-30T19:06:18.741Z,98893.84
2022-10-30T19:08:45.306Z,98889.72
2022-10-30T19:11:15.799Z,98897.44
2022-10-30T19:13:44.220Z,98899.19
2022-10-30T19:16:15.187Z,98897.03
2022-10-30T19:18:42.735Z,98891.25
2022-10-30T19:21:20.602Z,98892.34
2022-10-30T19:23:48.276Z,98904.34
2022-10-30T19:26:16.007Z,98895.91
2022-10-30T19:28:43.430Z,98900.28
2022-10-30T19:31:14.692Z,98900.47
2022-10-30T19:33:41.525Z,98900.72
2022-10-30T19:36:33.924Z,98901.34
2022-10-30T19:39:07.612Z,98906.16
2022-10-30T19:41:36.121Z,98901.69
2022-10-30T19:44:02.833Z,98908.53
2022-10-30T19:46:29.499Z,98904.38
2022-10-30T19:48:57.613Z,98911.81
2022-10-30T19:51:25.442Z,98909.97
2022-10-30T19:53:53.634Z,98917.69
2022-10-30T19:56:20.994Z,98917.63
2022-10-30T19:58:47.861Z,98918.75
2022-10-30T20:01:14.823Z,98923.03
2022-10-30T20:03:41.485Z,98920.56
2022-10-30T20:06:11.713Z,98919.69
2022-10-30T20:08:38.239Z,98921.31
2022-10-30T20:11:04.924Z,98924.47
2022-10-30T20:13:33.190Z,98924.66
2022-10-30T20:16:02.467Z,98918.22
2022-10-30T20:18:31.877Z,98932.66
2022-10-30T20:21:00.810Z,98936.88
2022-10-30T20:23:28.382Z,98931.66
2022-10-30T20:26:20.046Z,98932.66
2022-10-30T20:28:46.671Z,98935.06
2022-10-30T20:31:13.462Z,98934.28
2022-10-30T20:33:40.194Z,98944.53
2022-10-30T20:36:07.204Z,98940.13
2022-10-30T20:38:34.881Z,98943.34
2022-10-30T20:41:03.413Z,98940.25
2022-10-30T20:43:38.173Z,98940.75
2022-10-30T20:46:07.250Z,98951.13
2022-10-30T20:48:33.849Z,98945.41
2022-10-30T20:51:01.860Z,98942.41
2022-10-30T20:53:29.472Z,98942.97
2022-10-30T20:55:56.726Z,98943.56
2022-10-30T20:58:24.217Z,98955.44
2022-10-30T21:00:51.040Z,98948.34
2022-10-30T21:03:17.622Z,98951.53
2022-10-30T21:05:46.059Z,98952.34
2022-10-30T21:08:15.895Z,98955.50
2022-10-30T21:10:42.811Z,98949.16
2022-10-30T21:13:11.004Z,98953.88
2022-10-30T21:15:42.568Z,98949.75
2022-10-30T21:18:10.978Z,98954.78
2022-10-30T21:20:38.173Z,98954.44
2022-10-30T21:23:05.881Z,98942.50
2022-10-30T21:25:32.845Z,98951.72
2022-10-30T21:27:59.713Z,98948.25
2022-10-30T21:30:26.500Z,98953.81
2022-10-30T21:32:53.374Z,98955.25
2022-10-30T21:35:19.951Z,98961.72
2022-10-30T21:37:46.522Z,98950.88
2022-10-30T21:40:13.922Z,98957.13
2022-10-30T21:42:40.548Z,98960.50
2022-10-30T21:45:08.034Z,98964.91
2022-10-30T21:47:34.560Z,98959.16
2022-10-30T21:50:04.828Z,98958.72
2022-10-30T21:52:34.473Z,98957.25
2022-10-30T21:55:01.050Z,98950.88
2022-10-30T21:57:28.798Z,98955.28
2022-10-30T22:00:01.490Z,98954.72
2022-10-30T22:02:33.925Z,98953.09
2022-10-30T22:05:00.461Z,98947.44
2022-10-30T22:07:27.002Z,98951.06
2022-10-30T22:09:54.072Z,98946.16
2022-10-30T22:12:20.634Z,98951.50
2022-10-30T22:14:47.125Z,98947.44
2022-10-30T22:17:13.747Z,98951.06
2022-10-30T22:19:40.281Z,98949.16
2022-10-30T22:22:07.019Z,98949.69
2022-10-30T22:24:33.670Z,98948.66
2022-10-30T22:27:00.285Z,98952.09
2022-10-30T22:29:26.811Z,98946.03
2022-10-30T22:31:53.377Z,98948.75
2022-10-30T22:34:19.909Z,98946.13
2022-10-30T22:36:46.917Z,98943.84
2022-10-30T22:39:13.973Z,98941.78
2022-10-30T22:41:41.440Z,98946.13
2022-10-30T22:44:12.421Z,98939.78
2022-10-30T22:46:39.363Z,98948.25
2022-10-30T22:49:06.807Z,98944.91
2022-10-30T22:51:35.325Z,98950.53
2022-10-30T22:54:04.516Z,98946.63
2022-10-30T22:56:33.497Z,98945.25
2022-10-30T22:59:05.870Z,98953.59
2022-10-30T23:01:34.488Z,98953.09
2022-10-30T23:04:02.952Z,98947.94
2022-10-30T23:06:31.050Z,98949.34
2022-10-30T23:08:59.949Z,98943.97
2022-10-30T23:11:27.927Z,98950.88
2022-10-30T23:13:54.573Z,98948.97
2022-10-30T23:16:23.749Z,98943.78
2022-10-30T23:18:53.580Z,98946.22
2022-10-30T23:21:22.097Z,98948.09
2022-10-30T23:23:49.212Z,98942.31
2022-10-30T23:26:27.530Z,98950.81
2022-10-30T23:28:55.465Z,98949.53
2022-10-30T23:31:32.349Z,98947.50
2022-10-30T23:34:01.989Z,98947.22
2022-10-30T23:36:28.926Z,98953.88
2022-10-30T23:39:07.402Z,98948.59
2022-10-30T23:41:34.462Z,98944.66
2022-10-30T23:44:06.793Z,98950.31
2022-10-30T23:46:34.811Z,98953.28
2022-10-30T23:49:02.274Z,98949.25
2022-10-30T23:51:28.862Z,98958.44
2022-10-30T23:53:55.392Z,98950.19
2022-10-30T23:56:22.062Z,98955.13
2022-10-30T23:58:50.589Z,98952.56
